Terminal Aerodrome Forecast
Issued by NWS Tulsa, OK

Home | Current Version | Previous Version | Text Only | Print | Product List | Glossary On
Versions: 1 2 3 4 5 6 7 8 9 10 11 12 13
936
FTUS44 KTSA 240521
TAFTUL
TAF
KTUL 240521Z 2406/2506 19016G25KT P6SM SCT150
     FM240700 30017G27KT P6SM SCT025 SCT250
      TEMPO 2407/2410 BKN025
     FM241500 30015G25KT P6SM SCT250
     FM242000 32015G24KT P6SM SCT050=

USA.gov is the U.S. government's official web portal to all federal, state and local government web resources and services.